Time;durP1;ratioP1;P1;durP2;ratioP2;P2;SDS_P1;SDS_P2;PMS_P1;PMS_P2;Temp;Humidity;BMP_temperature;BMP_pressure;BME280_temperature;BME280_humidity;BME280_pressure;Samples;Min_cycle;Max_cycle;Signal;HPM_P1;HPM_P2
2022/01/05 00:00:18;;;;;;;8.90;1.85;;;3.20;99.90;;;;;;5104868;28;20020;-73
2022/01/05 00:02:44;;;;;;;11.88;2.10;;;3.20;99.90;;;;;;5106606;28;20241;-73
2022/01/05 00:05:10;;;;;;;11.65;2.00;;;3.10;99.90;;;;;;5104825;28;20114;-72
2022/01/05 00:07:36;;;;;;;11.23;1.70;;;3.10;99.90;;;;;;5104992;28;20031;-73
2022/01/05 00:10:03;;;;;;;9.02;1.55;;;3.10;99.90;;;;;;5104541;28;20055;-74
2022/01/05 00:12:29;;;;;;;12.98;2.13;;;3.10;99.90;;;;;;5103982;28;20049;-73
2022/01/05 00:14:54;;;;;;;11.93;2.05;;;3.10;99.90;;;;;;5105829;28;20023;-73
2022/01/05 00:17:20;;;;;;;7.70;1.73;;;3.10;99.90;;;;;;5105431;28;20134;-73
2022/01/05 00:19:45;;;;;;;12.40;2.00;;;3.00;99.90;;;;;;5104319;28;20065;-72
2022/01/05 00:22:11;;;;;;;16.17;2.30;;;3.00;99.90;;;;;;5106351;28;20229;-73
2022/01/05 00:24:37;;;;;;;11.48;2.20;;;3.00;99.90;;;;;;5096457;28;20064;-73
2022/01/05 00:27:04;;;;;;;10.10;1.58;;;3.00;99.90;;;;;;5105996;28;20016;-73
2022/01/05 00:29:30;;;;;;;11.45;1.70;;;3.00;99.90;;;;;;5104256;28;20471;-72
2022/01/05 00:31:56;;;;;;;10.20;1.40;;;3.00;99.90;;;;;;5100532;28;20321;-73
2022/01/05 00:34:22;;;;;;;9.85;1.52;;;3.00;99.90;;;;;;5104344;28;20028;-73
2022/01/05 00:36:47;;;;;;;12.55;2.10;;;3.00;99.90;;;;;;5105956;28;20104;-73
2022/01/05 00:39:13;;;;;;;11.45;2.10;;;3.00;99.90;;;;;;5103546;28;20081;-73
2022/01/05 00:41:39;;;;;;;16.67;2.08;;;3.00;99.90;;;;;;5103201;28;20028;-73
2022/01/05 00:44:05;;;;;;;14.02;2.33;;;3.00;99.90;;;;;;5103254;28;20016;-73
2022/01/05 00:46:31;;;;;;;13.40;2.00;;;3.00;99.90;;;;;;5103541;28;20299;-73
2022/01/05 00:48:57;;;;;;;12.43;1.80;;;3.00;99.90;;;;;;5104429;28;20027;-73
2022/01/05 00:51:22;;;;;;;11.38;2.20;;;3.00;99.90;;;;;;5103616;28;20061;-73
2022/01/05 00:53:48;;;;;;;9.43;2.35;;;2.90;99.90;;;;;;5103696;28;20028;-72
2022/01/05 00:56:14;;;;;;;10.32;1.77;;;2.90;99.90;;;;;;5104417;28;20015;-73
2022/01/05 00:58:39;;;;;;;14.05;2.78;;;2.90;99.90;;;;;;5104436;28;20019;-73
2022/01/05 01:01:05;;;;;;;9.73;1.90;;;2.90;99.90;;;;;;5103743;28;20079;-73
2022/01/05 01:03:31;;;;;;;12.35;2.20;;;2.90;99.90;;;;;;5103236;28;20234;-73
2022/01/05 01:05:59;;;;;;;14.98;2.45;;;3.00;99.90;;;;;;5104134;28;20024;-72
2022/01/05 01:08:25;;;;;;;17.15;2.60;;;3.00;99.90;;;;;;5104041;28;20020;-73
2022/01/05 01:10:51;;;;;;;10.75;2.63;;;3.10;99.90;;;;;;5102073;28;20240;-72
2022/01/05 01:13:18;;;;;;;11.43;1.75;;;3.10;99.90;;;;;;5101000;28;20044;-73
2022/01/05 01:15:46;;;;;;;20.92;2.33;;;3.20;99.90;;;;;;5103792;28;20038;-73
2022/01/05 01:18:12;;;;;;;12.13;2.00;;;3.30;99.90;;;;;;5086265;28;20020;-72
2022/01/05 01:20:38;;;;;;;9.52;1.33;;;3.50;99.90;;;;;;5102357;28;20016;-73
2022/01/05 01:23:04;;;;;;;13.00;1.85;;;3.60;99.90;;;;;;5104266;28;20023;-73
2022/01/05 01:25:30;;;;;;;11.48;2.15;;;3.70;99.90;;;;;;5103329;28;20012;-73
2022/01/05 01:27:55;;;;;;;5.07;0.93;;;3.80;99.90;;;;;;5103419;28;20019;-72
2022/01/05 01:30:21;;;;;;;10.93;2.10;;;3.80;99.90;;;;;;5099728;28;20096;-73
2022/01/05 01:32:47;;;;;;;8.35;1.40;;;3.90;99.90;;;;;;5085262;28;20023;-73
2022/01/05 01:35:13;;;;;;;8.25;1.42;;;4.00;99.90;;;;;;5103194;28;20015;-73
2022/01/05 01:37:38;;;;;;;8.63;1.38;;;4.00;99.90;;;;;;5103850;28;20089;-73
2022/01/05 01:40:06;;;;;;;11.55;2.13;;;4.00;99.90;;;;;;5064857;28;1074715;-72
2022/01/05 01:42:32;;;;;;;9.65;1.65;;;4.10;99.90;;;;;;5100319;28;20020;-72
2022/01/05 01:44:58;;;;;;;11.23;1.70;;;4.20;99.90;;;;;;5104235;28;20061;-73
2022/01/05 01:47:25;;;;;;;10.13;1.73;;;4.20;99.90;;;;;;5099096;28;20023;-73
2022/01/05 01:49:51;;;;;;;9.60;1.48;;;4.20;99.90;;;;;;5103191;28;20027;-72
2022/01/05 01:52:16;;;;;;;9.68;1.77;;;4.20;99.90;;;;;;5104080;28;20020;-73
2022/01/05 01:54:42;;;;;;;16.02;1.92;;;4.20;99.90;;;;;;5104193;28;20314;-73
2022/01/05 01:57:08;;;;;;;9.32;1.33;;;4.10;99.90;;;;;;5104553;28;20023;-72
2022/01/05 01:59:34;;;;;;;8.73;1.63;;;4.10;99.90;;;;;;5103661;28;20020;-72
2022/01/05 02:02:00;;;;;;;10.98;1.83;;;4.00;99.90;;;;;;5103765;28;20008;-73
2022/01/05 02:04:26;;;;;;;10.73;1.90;;;4.00;99.90;;;;;;5103341;28;20032;-73
2022/01/05 02:06:52;;;;;;;11.50;1.67;;;4.10;99.90;;;;;;5104344;28;20188;-73
2022/01/05 02:09:18;;;;;;;10.77;2.28;;;4.10;99.90;;;;;;5103462;28;20036;-72
2022/01/05 02:11:44;;;;;;;12.32;1.73;;;4.10;99.90;;;;;;5103734;28;20031;-72
2022/01/05 02:14:11;;;;;;;14.68;2.28;;;4.20;99.90;;;;;;5101773;28;20024;-73
2022/01/05 02:16:42;;;;;;;13.80;2.35;;;4.30;99.90;;;;;;5103047;28;20024;-72
2022/01/05 02:19:08;;;;;;;9.93;1.42;;;4.30;99.90;;;;;;5103110;28;20020;-73
2022/01/05 02:21:36;;;;;;;13.65;2.00;;;4.30;99.90;;;;;;5102026;28;20090;-72
2022/01/05 02:24:04;;;;;;;12.32;2.13;;;4.40;99.90;;;;;;5102830;28;20282;-72
2022/01/05 02:26:30;;;;;;;12.43;1.95;;;4.40;99.90;;;;;;5102858;28;20026;-72
2022/01/05 02:28:56;;;;;;;14.00;1.80;;;4.30;99.90;;;;;;5103904;28;20043;-72
2022/01/05 02:31:22;;;;;;;17.27;2.20;;;4.30;99.90;;;;;;5097745;28;20020;-72
2022/01/05 02:33:48;;;;;;;12.70;2.17;;;4.30;99.90;;;;;;5103905;28;20055;-72
2022/01/05 02:36:17;;;;;;;10.77;1.80;;;4.20;99.90;;;;;;5094992;28;20012;-72
2022/01/05 02:38:43;;;;;;;11.98;1.65;;;4.20;99.90;;;;;;5114291;28;20024;-73
2022/01/05 02:41:11;;;;;;;11.20;2.28;;;4.20;99.90;;;;;;5118273;28;20027;-72
2022/01/05 02:43:38;;;;;;;11.02;2.00;;;4.10;99.90;;;;;;5117793;28;20016;-72
2022/01/05 02:46:04;;;;;;;15.57;2.30;;;4.10;99.90;;;;;;5116180;28;20079;-72
2022/01/05 02:48:32;;;;;;;10.20;2.08;;;4.00;99.90;;;;;;5118771;28;20012;-72
2022/01/05 02:50:59;;;;;;;12.23;1.50;;;3.90;99.90;;;;;;5103482;28;20083;-72
2022/01/05 02:53:25;;;;;;;23.55;2.50;;;3.90;99.90;;;;;;5103281;28;20218;-72
2022/01/05 02:55:52;;;;;;;14.90;1.90;;;3.80;99.90;;;;;;5103373;28;20020;-72
2022/01/05 02:58:18;;;;;;;14.43;2.08;;;3.80;99.90;;;;;;5103330;28;20023;-72
2022/01/05 03:00:44;;;;;;;21.48;2.00;;;3.70;99.90;;;;;;5102125;28;20069;-72
2022/01/05 03:03:10;;;;;;;13.10;2.20;;;3.70;99.90;;;;;;5102050;28;20020;-71
2022/01/05 03:05:35;;;;;;;19.10;2.78;;;3.70;99.90;;;;;;5101780;28;20023;-73
2022/01/05 03:08:01;;;;;;;19.33;3.03;;;3.60;99.90;;;;;;5102906;28;20038;-72
2022/01/05 03:10:27;;;;;;;15.40;2.22;;;3.70;99.90;;;;;;5103127;28;20031;-72
2022/01/05 03:12:53;;;;;;;13.27;1.73;;;3.60;99.90;;;;;;5102927;28;20027;-72
2022/01/05 03:15:18;;;;;;;9.45;2.33;;;3.70;99.90;;;;;;5102066;28;20047;-72
2022/01/05 03:17:44;;;;;;;11.40;1.52;;;3.90;99.90;;;;;;5107590;28;20020;-72
2022/01/05 03:20:12;;;;;;;10.77;1.45;;;4.00;99.90;;;;;;5107160;28;20027;-72
2022/01/05 03:22:38;;;;;;;16.30;1.83;;;4.10;99.90;;;;;;5105912;28;20126;-71
2022/01/05 03:25:04;;;;;;;9.32;1.20;;;4.10;99.90;;;;;;5105821;28;20024;-72
2022/01/05 03:27:30;;;;;;;14.05;1.65;;;4.10;99.90;;;;;;5105867;28;20291;-72
2022/01/05 03:29:56;;;;;;;10.95;1.10;;;4.20;99.90;;;;;;5106843;28;20087;-71
2022/01/05 03:32:23;;;;;;;12.15;1.73;;;4.10;99.90;;;;;;5105763;28;20295;-72
2022/01/05 03:34:51;;;;;;;8.75;1.48;;;4.20;99.90;;;;;;5106552;28;20023;-72
2022/01/05 03:37:17;;;;;;;7.50;1.00;;;4.20;99.90;;;;;;5107092;28;20019;-72
2022/01/05 03:39:42;;;;;;;13.30;1.52;;;4.20;99.90;;;;;;5105695;28;20124;-72
2022/01/05 03:42:08;;;;;;;10.85;1.38;;;4.20;99.90;;;;;;5106652;28;20024;-72
2022/01/05 03:44:34;;;;;;;7.97;1.25;;;4.30;99.90;;;;;;5106393;28;20073;-72
2022/01/05 03:47:00;;;;;;;9.43;1.35;;;4.30;99.90;;;;;;5105357;28;20023;-72
2022/01/05 03:49:27;;;;;;;7.97;1.35;;;4.30;99.90;;;;;;5106755;28;20016;-73
2022/01/05 03:51:53;;;;;;;6.63;1.45;;;4.30;99.90;;;;;;5106687;28;20094;-72
2022/01/05 03:54:19;;;;;;;6.35;1.45;;;4.20;99.90;;;;;;5088030;28;20032;-73
2022/01/05 03:56:45;;;;;;;12.43;1.52;;;4.20;99.90;;;;;;5107161;28;20023;-72
2022/01/05 03:59:10;;;;;;;10.20;1.45;;;4.20;99.90;;;;;;5108074;28;20083;-72
2022/01/05 04:01:36;;;;;;;8.05;1.30;;;4.20;99.90;;;;;;5107297;28;20016;-72
2022/01/05 04:04:02;;;;;;;6.32;1.30;;;4.10;99.90;;;;;;5107132;28;20027;-71
2022/01/05 04:06:28;;;;;;;11.63;2.05;;;4.10;99.90;;;;;;5107223;28;20016;-72
2022/01/05 04:08:53;;;;;;;8.50;1.38;;;4.10;99.90;;;;;;5105913;28;20026;-72
2022/01/05 04:11:19;;;;;;;9.65;1.52;;;4.00;99.90;;;;;;5106353;28;20023;-72
2022/01/05 04:13:45;;;;;;;12.88;2.05;;;4.00;99.90;;;;;;5104510;28;20038;-72
2022/01/05 04:16:10;;;;;;;16.65;1.73;;;3.90;99.90;;;;;;5104503;28;20039;-72
2022/01/05 04:18:37;;;;;;;7.40;1.52;;;3.90;99.90;;;;;;5106660;28;20298;-73
2022/01/05 04:21:02;;;;;;;9.43;1.92;;;3.80;99.90;;;;;;5106141;28;20028;-73
2022/01/05 04:23:28;;;;;;;10.35;1.85;;;3.70;99.90;;;;;;5105990;28;20394;-72
2022/01/05 04:25:54;;;;;;;15.40;1.80;;;3.70;99.90;;;;;;5104864;28;20348;-72
2022/01/05 04:28:20;;;;;;;15.05;1.83;;;3.60;99.90;;;;;;5106041;28;20024;-72
2022/01/05 04:30:46;;;;;;;5.85;1.10;;;3.60;99.90;;;;;;5087240;28;20022;-72
2022/01/05 04:33:11;;;;;;;9.48;1.73;;;3.70;99.90;;;;;;5104410;28;20020;-72
2022/01/05 04:35:37;;;;;;;9.93;1.40;;;3.70;99.90;;;;;;5105387;28;20043;-71
2022/01/05 04:38:03;;;;;;;6.93;1.55;;;3.80;99.90;;;;;;5105602;28;20079;-72
2022/01/05 04:40:31;;;;;;;6.50;1.25;;;3.80;99.90;;;;;;5106097;28;20305;-72
2022/01/05 04:42:57;;;;;;;17.98;2.03;;;3.70;99.90;;;;;;5105764;28;20196;-72
2022/01/05 04:45:22;;;;;;;7.55;1.63;;;3.70;99.90;;;;;;5105081;28;20015;-72
2022/01/05 04:47:48;;;;;;;10.57;1.75;;;3.80;99.90;;;;;;5103916;28;20024;-72
2022/01/05 04:50:15;;;;;;;13.20;2.35;;;3.80;99.90;;;;;;5105591;28;20016;-72
2022/01/05 04:52:42;;;;;;;16.60;1.77;;;3.80;99.90;;;;;;5105141;28;20064;-72
2022/01/05 04:55:08;;;;;;;19.15;2.95;;;3.80;99.90;;;;;;5105132;28;20023;-72
2022/01/05 04:57:34;;;;;;;12.65;1.90;;;3.80;99.90;;;;;;5105481;28;20057;-72
2022/01/05 05:00:00;;;;;;;8.55;1.45;;;3.80;99.90;;;;;;5105438;28;20040;-71
2022/01/05 05:02:26;;;;;;;13.02;2.15;;;3.80;99.90;;;;;;5105628;28;20019;-72
2022/01/05 05:04:52;;;;;;;9.93;1.73;;;3.70;99.90;;;;;;5103242;28;20012;-72
2022/01/05 05:07:18;;;;;;;9.93;1.90;;;3.70;99.90;;;;;;5104505;28;20028;-72
2022/01/05 05:09:43;;;;;;;12.20;2.13;;;3.60;99.90;;;;;;5103731;28;20312;-72
2022/01/05 05:12:10;;;;;;;9.45;2.20;;;3.60;99.90;;;;;;5105119;28;20027;-72
2022/01/05 05:14:36;;;;;;;15.55;1.80;;;3.60;99.90;;;;;;5104245;28;20019;-72
2022/01/05 05:17:02;;;;;;;18.05;1.50;;;3.60;99.90;;;;;;5103853;28;20325;-73
2022/01/05 05:19:28;;;;;;;14.63;1.88;;;3.60;99.90;;;;;;5103835;28;20048;-72
2022/01/05 05:21:54;;;;;;;12.77;1.98;;;3.70;99.90;;;;;;5105170;28;20035;-72
2022/01/05 05:24:20;;;;;;;9.48;1.48;;;3.60;99.90;;;;;;5103317;28;20307;-72
2022/01/05 05:26:45;;;;;;;10.38;1.90;;;3.60;99.90;;;;;;5103905;28;20016;-72
2022/01/05 05:29:11;;;;;;;9.98;1.63;;;3.60;99.90;;;;;;5103611;28;20047;-72
2022/01/05 05:31:36;;;;;;;7.53;1.48;;;3.60;99.90;;;;;;5100616;28;20321;-72
2022/01/05 05:34:02;;;;;;;10.52;1.23;;;3.70;99.90;;;;;;5103033;28;20020;-72
2022/01/05 05:36:28;;;;;;;12.63;1.85;;;3.70;99.90;;;;;;5104580;28;20012;-72
2022/01/05 05:38:53;;;;;;;10.48;1.75;;;3.70;99.90;;;;;;5086324;28;20275;-72
2022/01/05 05:41:19;;;;;;;14.20;1.77;;;3.60;99.90;;;;;;5103627;28;20031;-72
2022/01/05 05:43:45;;;;;;;12.45;1.75;;;3.60;99.90;;;;;;5110343;28;20038;-72
2022/01/05 05:46:10;;;;;;;9.30;1.92;;;3.60;99.90;;;;;;5112365;28;20062;-72
2022/01/05 05:48:36;;;;;;;12.15;1.63;;;3.70;99.90;;;;;;5113342;28;20012;-72
2022/01/05 05:51:02;;;;;;;10.57;1.65;;;3.70;99.90;;;;;;5111932;28;20083;-72
2022/01/05 05:53:28;;;;;;;6.70;1.83;;;3.80;99.90;;;;;;5110045;28;20200;-72
2022/01/05 05:55:53;;;;;;;10.85;1.63;;;3.80;99.90;;;;;;5085944;28;20076;-72
2022/01/05 05:58:19;;;;;;;10.77;1.55;;;3.90;99.90;;;;;;5104348;28;20023;-72
2022/01/05 06:00:45;;;;;;;6.03;1.10;;;3.90;99.90;;;;;;5103313;28;20019;-72
2022/01/05 06:03:10;;;;;;;14.45;2.08;;;3.90;99.90;;;;;;5104136;28;20316;-73
2022/01/05 06:05:36;;;;;;;6.07;1.13;;;4.00;99.90;;;;;;5103300;28;20320;-72
2022/01/05 06:08:02;;;;;;;15.20;1.77;;;3.90;99.90;;;;;;5102050;28;20203;-72
2022/01/05 06:10:28;;;;;;;13.05;1.67;;;3.90;99.90;;;;;;5103904;28;20196;-72
2022/01/05 06:12:53;;;;;;;9.40;1.23;;;4.00;99.90;;;;;;5104042;28;20016;-73
2022/01/05 06:15:19;;;;;;;14.88;2.00;;;4.00;99.90;;;;;;5103435;28;20126;-72
2022/01/05 06:17:45;;;;;;;9.40;1.25;;;4.00;99.90;;;;;;5101671;28;20016;-72
2022/01/05 06:20:12;;;;;;;11.27;1.50;;;4.00;99.90;;;;;;5102721;28;20039;-72
2022/01/05 06:22:40;;;;;;;12.85;1.55;;;4.00;99.90;;;;;;5103913;28;20095;-73
2022/01/05 06:25:07;;;;;;;13.25;1.90;;;4.00;99.90;;;;;;5101987;28;20035;-73
2022/01/05 06:27:33;;;;;;;16.15;2.13;;;4.00;99.90;;;;;;5103550;28;20330;-73
2022/01/05 06:30:04;;;;;;;4.75;1.27;;;4.00;99.90;;;;;;5103315;28;20012;-72
2022/01/05 06:32:29;;;;;;;11.48;1.70;;;4.00;99.90;;;;;;5099640;28;20020;-72
2022/01/05 06:34:55;;;;;;;9.25;1.90;;;4.00;99.90;;;;;;5101672;28;20028;-72
2022/01/05 06:37:21;;;;;;;13.40;1.95;;;3.90;99.90;;;;;;5103495;28;20016;-72
2022/01/05 06:39:46;;;;;;;7.40;1.58;;;3.90;99.90;;;;;;5102046;28;20050;-72
2022/01/05 06:42:12;;;;;;;12.98;2.17;;;3.90;99.90;;;;;;5095133;28;20031;-72
2022/01/05 06:44:38;;;;;;;13.18;1.90;;;3.90;99.90;;;;;;5103176;28;20050;-72
2022/01/05 06:47:04;;;;;;;10.10;1.58;;;3.90;99.90;;;;;;5099992;28;20084;-72
2022/01/05 06:49:30;;;;;;;13.98;1.90;;;4.00;99.90;;;;;;5103331;28;20029;-73
2022/01/05 06:51:56;;;;;;;14.85;2.47;;;4.00;99.90;;;;;;5101882;28;20337;-72
2022/01/05 06:54:22;;;;;;;11.40;1.73;;;4.00;99.90;;;;;;5103217;28;20075;-73
2022/01/05 06:56:48;;;;;;;21.20;1.90;;;4.00;99.90;;;;;;5103028;28;20023;-72
2022/01/05 06:59:14;;;;;;;12.73;1.30;;;4.00;99.90;;;;;;5103214;28;20023;-72
2022/01/05 07:01:40;;;;;;;14.43;2.17;;;4.00;99.90;;;;;;5102333;28;20046;-72
2022/01/05 07:04:06;;;;;;;8.38;1.83;;;4.00;99.90;;;;;;5102587;28;20016;-71
2022/01/05 07:06:32;;;;;;;13.25;2.00;;;3.90;99.90;;;;;;5101646;28;20019;-72
2022/01/05 07:08:57;;;;;;;14.35;2.13;;;4.00;99.90;;;;;;5100749;28;20079;-71
2022/01/05 07:11:23;;;;;;;14.60;1.40;;;4.00;99.90;;;;;;5103128;28;20210;-72
2022/01/05 07:13:49;;;;;;;9.75;2.17;;;4.00;99.90;;;;;;5101835;28;20112;-72
2022/01/05 07:16:14;;;;;;;14.82;1.80;;;4.10;99.90;;;;;;5101193;28;20253;-73
2022/01/05 07:18:41;;;;;;;14.07;1.98;;;4.10;99.90;;;;;;5101762;28;20020;-73
2022/01/05 07:21:07;;;;;;;14.63;1.88;;;4.20;99.90;;;;;;5102977;28;20087;-73
2022/01/05 07:23:33;;;;;;;10.90;1.98;;;4.20;99.90;;;;;;5103506;28;20028;-73
2022/01/05 07:25:58;;;;;;;13.05;1.95;;;4.30;99.90;;;;;;5098427;28;20285;-72
2022/01/05 07:28:24;;;;;;;19.48;2.60;;;4.30;99.90;;;;;;5102957;28;20028;-72
2022/01/05 07:30:50;;;;;;;12.55;2.78;;;4.30;99.90;;;;;;5100424;28;20023;-74
2022/01/05 07:33:15;;;;;;;9.15;1.60;;;4.30;99.90;;;;;;5102950;28;20016;-72
2022/01/05 07:35:41;;;;;;;15.38;2.10;;;4.30;99.90;;;;;;5101104;28;20020;-72
2022/01/05 07:38:07;;;;;;;9.00;1.63;;;4.30;99.90;;;;;;5102746;28;20330;-72
2022/01/05 07:40:33;;;;;;;13.48;2.38;;;4.30;99.90;;;;;;5103159;28;20075;-74
2022/01/05 07:42:58;;;;;;;8.63;1.92;;;4.30;99.90;;;;;;5102826;28;20360;-72
2022/01/05 07:45:24;;;;;;;10.68;1.73;;;4.30;99.90;;;;;;5102654;28;20079;-73
2022/01/05 07:47:50;;;;;;;16.50;2.55;;;4.30;99.90;;;;;;5100323;28;20019;-73
2022/01/05 07:50:16;;;;;;;14.45;1.75;;;4.40;99.90;;;;;;5101648;28;20065;-71
2022/01/05 07:52:44;;;;;;;10.05;1.80;;;4.40;99.90;;;;;;5094490;28;20016;-72
2022/01/05 07:55:11;;;;;;;22.80;2.35;;;4.40;99.90;;;;;;5097000;28;20043;-71
2022/01/05 07:57:37;;;;;;;14.27;2.10;;;4.40;99.90;;;;;;5097543;28;20038;-72
2022/01/05 08:00:06;;;;;;;11.48;1.60;;;4.40;99.90;;;;;;5100452;28;20024;-73
2022/01/05 08:02:31;;;;;;;13.13;2.58;;;4.50;99.90;;;;;;5091377;28;20023;-71
2022/01/05 08:04:57;;;;;;;21.58;1.70;;;4.50;99.90;;;;;;5096335;28;20102;-73
2022/01/05 08:07:23;;;;;;;8.00;1.70;;;4.40;99.90;;;;;;5100987;28;20051;-74
2022/01/05 08:09:48;;;;;;;10.95;1.45;;;4.50;99.90;;;;;;5102242;28;20397;-74
2022/01/05 08:12:15;;;;;;;9.00;1.60;;;4.50;99.90;;;;;;5103637;28;20368;-74
2022/01/05 08:14:40;;;;;;;15.50;1.88;;;4.50;99.90;;;;;;5104881;28;20023;-76
2022/01/05 08:17:06;;;;;;;6.10;1.05;;;4.50;99.90;;;;;;5096716;28;20020;-72
2022/01/05 08:19:32;;;;;;;15.70;2.28;;;4.50;99.90;;;;;;5101462;28;20075;-71
2022/01/05 08:21:57;;;;;;;8.15;1.30;;;4.50;99.90;;;;;;5105015;28;20278;-72
2022/01/05 08:24:23;;;;;;;16.33;2.05;;;4.50;99.90;;;;;;5096225;28;20299;-74
2022/01/05 08:26:49;;;;;;;16.60;2.10;;;4.60;99.90;;;;;;5101573;28;20130;-75
2022/01/05 08:29:15;;;;;;;14.57;2.15;;;4.60;99.90;;;;;;5085167;28;20020;-73
2022/01/05 08:31:40;;;;;;;12.20;1.33;;;4.60;99.90;;;;;;5080293;28;20218;-74
2022/01/05 08:34:06;;;;;;;9.05;2.65;;;4.60;99.90;;;;;;5091679;28;20020;-74
2022/01/05 08:36:32;;;;;;;14.98;1.73;;;4.60;99.90;;;;;;5104336;28;20020;-72
2022/01/05 08:38:59;;;;;;;11.57;1.75;;;4.60;99.90;;;;;;5104208;28;20046;-73
2022/01/05 08:41:24;;;;;;;14.48;2.05;;;4.60;99.90;;;;;;5096470;28;20021;-74
2022/01/05 08:43:51;;;;;;;10.63;1.92;;;4.60;99.90;;;;;;5099577;28;20079;-73
2022/01/05 08:46:16;;;;;;;13.75;1.63;;;4.60;99.90;;;;;;5101166;28;20020;-74
2022/01/05 08:48:43;;;;;;;12.68;2.53;;;4.60;99.90;;;;;;5103925;28;20024;-75
2022/01/05 08:51:09;;;;;;;12.38;1.98;;;4.60;99.90;;;;;;5091620;28;20023;-72
2022/01/05 08:53:35;;;;;;;12.65;2.00;;;4.60;99.90;;;;;;5110683;28;20091;-71
2022/01/05 08:56:00;;;;;;;13.50;2.58;;;4.60;99.90;;;;;;5109531;28;20093;-76
2022/01/05 08:58:26;;;;;;;15.80;2.08;;;4.60;99.90;;;;;;5118172;28;20023;-76
2022/01/05 09:00:51;;;;;;;14.32;1.83;;;4.70;99.90;;;;;;5115429;28;20027;-77
2022/01/05 09:03:17;;;;;;;9.63;1.30;;;4.70;99.90;;;;;;5116392;28;20030;-76
2022/01/05 09:05:43;;;;;;;16.77;1.65;;;4.70;99.90;;;;;;5112507;28;20024;-75
2022/01/05 09:08:10;;;;;;;20.83;2.10;;;4.80;99.90;;;;;;5104733;28;20076;-74
2022/01/05 09:10:36;;;;;;;10.27;1.42;;;4.80;99.90;;;;;;5105058;28;20356;-75
2022/01/05 09:13:02;;;;;;;13.07;1.70;;;4.80;99.90;;;;;;5086295;28;20023;-76
2022/01/05 09:15:28;;;;;;;8.13;0.88;;;4.80;99.90;;;;;;5104567;28;20035;-73
2022/01/05 09:17:54;;;;;;;7.35;0.95;;;4.80;99.90;;;;;;5098517;28;20317;-73
2022/01/05 09:20:20;;;;;;;9.75;1.13;;;4.90;99.90;;;;;;5100020;28;20028;-73
2022/01/05 09:22:46;;;;;;;9.70;2.22;;;4.80;99.90;;;;;;5104856;28;20219;-75
2022/01/05 09:25:14;;;;;;;17.42;1.90;;;4.90;99.90;;;;;;5088394;28;20023;-73
2022/01/05 09:27:40;;;;;;;13.55;1.75;;;4.90;99.90;;;;;;5103186;28;20015;-73
2022/01/05 09:30:08;;;;;;;8.40;1.38;;;4.90;99.90;;;;;;5104170;28;20058;-72
2022/01/05 09:32:35;;;;;;;10.20;1.55;;;4.90;99.90;;;;;;5090734;28;20024;-76
2022/01/05 09:35:02;;;;;;;11.82;2.60;;;4.90;99.90;;;;;;5085913;28;20073;-73
2022/01/05 09:37:30;;;;;;;8.85;1.60;;;4.90;99.90;;;;;;5099119;28;20166;-75
2022/01/05 09:42:42;;;;;;;9.93;1.40;;;5.00;99.90;;;;;;5103441;28;20341;-73
2022/01/05 09:45:20;;;;;;;11.32;1.55;;;5.00;99.90;;;;;;5104225;28;20251;-73
2022/01/05 09:48:25;;;;;;;8.60;1.42;;;5.10;99.90;;;;;;5099629;28;20016;-75
2022/01/05 09:50:59;;;;;;;13.52;2.15;;;5.10;99.90;;;;;;5088597;28;20103;-72
2022/01/05 09:53:25;;;;;;;11.88;2.80;;;5.10;99.90;;;;;;5103434;28;20016;-70
2022/01/05 09:55:52;;;;;;;9.60;1.30;;;5.10;99.90;;;;;;5092963;28;20062;-73
2022/01/05 09:58:21;;;;;;;12.18;2.13;;;5.10;99.90;;;;;;5103843;28;20036;-74
2022/01/05 10:00:49;;;;;;;8.45;1.65;;;5.20;99.90;;;;;;5101230;28;20023;-75
2022/01/05 10:03:15;;;;;;;12.40;1.90;;;5.20;99.90;;;;;;5091673;28;20033;-72
2022/01/05 10:05:42;;;;;;;8.75;1.45;;;5.20;99.90;;;;;;5096530;28;20017;-74
2022/01/05 10:08:08;;;;;;;9.80;1.58;;;5.20;99.90;;;;;;5094762;28;20072;-74
2022/01/05 10:10:33;;;;;;;11.15;1.80;;;5.20;99.90;;;;;;5102449;28;20020;-74
2022/01/05 10:13:00;;;;;;;8.82;1.65;;;5.20;99.90;;;;;;5103750;28;20031;-75
2022/01/05 10:15:26;;;;;;;9.50;1.58;;;5.20;99.90;;;;;;5102762;28;20024;-73
2022/01/05 10:18:11;;;;;;;8.65;1.95;;;5.30;99.90;;;;;;5094492;28;20164;-75
2022/01/05 10:20:37;;;;;;;12.35;2.08;;;5.30;99.90;;;;;;5097662;28;20448;-76
2022/01/05 10:23:03;;;;;;;7.38;1.70;;;5.30;99.90;;;;;;5095031;28;20065;-76
2022/01/05 10:25:29;;;;;;;13.48;2.03;;;5.40;99.90;;;;;;5102374;28;20024;-73
2022/01/05 10:27:58;;;;;;;16.05;2.03;;;5.40;99.90;;;;;;5103875;28;20234;-76
2022/01/05 10:30:41;;;;;;;10.70;1.85;;;5.50;99.90;;;;;;5100012;28;20019;-77
2022/01/05 10:33:07;;;;;;;8.32;1.55;;;5.50;99.90;;;;;;5099484;28;20015;-75
2022/01/05 10:35:34;;;;;;;14.43;1.52;;;5.50;99.90;;;;;;5097533;28;20106;-75
2022/01/05 10:38:03;;;;;;;8.35;1.92;;;5.60;99.90;;;;;;5085728;28;20016;-72
2022/01/05 10:40:33;;;;;;;17.92;1.88;;;5.60;99.90;;;;;;5096319;28;20047;-73
2022/01/05 10:43:05;;;;;;;10.93;1.65;;;5.60;99.90;;;;;;5102054;28;20310;-73
2022/01/05 10:45:51;;;;;;;6.80;1.60;;;5.70;99.90;;;;;;5093448;28;20030;-74
2022/01/05 10:48:19;;;;;;;12.27;1.33;;;5.70;99.90;;;;;;5095976;28;20020;-73
2022/01/05 10:50:46;;;;;;;7.65;1.42;;;5.80;99.90;;;;;;5086099;28;20031;-72
2022/01/05 10:53:20;;;;;;;7.93;1.70;;;5.80;99.90;;;;;;5099921;28;20105;-75
2022/01/05 10:55:47;;;;;;;9.48;1.70;;;5.90;99.90;;;;;;5100330;28;20096;-73
2022/01/05 10:58:16;;;;;;;14.10;2.58;;;5.90;99.90;;;;;;5102834;28;20262;-75
2022/01/05 11:00:44;;;;;;;9.75;1.38;;;6.00;99.90;;;;;;5084457;28;20032;-75
2022/01/05 11:03:28;;;;;;;14.00;1.70;;;6.20;99.20;;;;;;5094033;28;20016;-73
2022/01/05 11:06:15;;;;;;;11.85;1.55;;;6.20;99.20;;;;;;5082672;28;20012;-75
2022/01/05 11:09:04;;;;;;;20.30;1.67;;;6.30;99.20;;;;;;5100705;28;20023;-75
2022/01/05 11:11:41;;;;;;;10.02;1.40;;;6.30;99.10;;;;;;5101756;28;20016;-74
2022/01/05 11:14:13;;;;;;;15.32;1.75;;;6.30;99.20;;;;;;5084659;28;20031;-74
2022/01/05 11:16:40;;;;;;;;;;;6.30;98.90;;;;;;5102352;28;20023;-77
2022/01/05 11:19:28;;;;;;;7.75;1.42;;;6.20;98.70;;;;;;5098468;28;19907;-74
2022/01/05 11:22:15;;;;;;;14.55;1.67;;;6.20;99.20;;;;;;5086595;28;20019;-76
2022/01/05 11:24:43;;;;;;;8.70;1.20;;;6.20;98.90;;;;;;5102652;28;20012;-78
2022/01/05 11:27:14;;;;;;;11.88;1.75;;;6.20;99.00;;;;;;5101877;28;20362;-75
2022/01/05 11:29:42;;;;;;;20.20;1.97;;;6.20;99.20;;;;;;5091959;28;20016;-77
2022/01/05 11:32:11;;;;;;;11.05;1.85;;;6.20;99.20;;;;;;5097400;28;20030;-74
2022/01/05 11:34:37;;;;;;;13.77;1.42;;;6.20;99.50;;;;;;5084383;28;20052;-74
2022/01/05 11:37:03;;;;;;;20.48;1.48;;;6.20;99.50;;;;;;5104624;28;20065;-75
2022/01/05 11:39:31;;;;;;;12.43;1.40;;;6.30;99.10;;;;;;5103809;28;20065;-72
2022/01/05 11:41:59;;;;;;;9.52;1.52;;;6.30;99.00;;;;;;5101361;28;20029;-75
2022/01/05 11:44:28;;;;;;;8.60;1.42;;;6.30;99.10;;;;;;5103022;28;20016;-74
2022/01/05 11:46:54;;;;;;;8.77;1.73;;;6.30;99.40;;;;;;5097850;28;20070;-75
2022/01/05 11:49:29;;;;;;;18.65;2.08;;;6.30;99.20;;;;;;5105207;28;20035;-77
2022/01/05 11:51:59;;;;;;;8.27;1.42;;;6.30;99.30;;;;;;5098194;28;20236;-75
2022/01/05 11:54:32;;;;;;;18.13;1.77;;;6.30;99.30;;;;;;5104736;28;20039;-74
2022/01/05 11:57:07;;;;;;;10.85;1.83;;;6.30;99.50;;;;;;5083936;28;20039;-76
2022/01/05 11:59:36;;;;;;;13.90;1.73;;;6.30;99.50;;;;;;5104200;28;20031;-76
2022/01/05 12:02:14;;;;;;;12.55;1.67;;;6.40;99.40;;;;;;5102441;28;20083;-75
2022/01/05 12:05:01;;;;;;;8.48;1.85;;;6.40;99.10;;;;;;5088665;28;20210;-75
2022/01/05 12:07:46;;;;;;;15.07;2.05;;;6.40;98.80;;;;;;5099043;28;20017;-77
2022/01/05 12:10:21;;;;;;;7.70;1.70;;;6.30;98.90;;;;;;5096014;28;20032;-75
2022/01/05 12:12:57;;;;;;;11.27;1.67;;;6.40;98.70;;;;;;5111249;28;20039;-77
2022/01/05 12:15:45;;;;;;;10.25;2.20;;;6.40;98.70;;;;;;5087892;28;20024;-73
2022/01/05 12:18:12;;;;;;;22.35;2.88;;;6.40;98.60;;;;;;5110890;28;20035;-74
2022/01/05 12:20:40;;;;;;;11.95;1.83;;;6.40;98.40;;;;;;5095991;28;20309;-73
2022/01/05 12:23:24;;;;;;;16.88;2.42;;;6.40;98.30;;;;;;5091293;28;20028;-76
2022/01/05 12:26:11;;;;;;;10.48;2.17;;;6.50;98.80;;;;;;5098412;28;20016;-76
2022/01/05 12:28:39;;;;;;;12.55;1.80;;;6.60;98.90;;;;;;5089720;28;20292;-75
2022/01/05 12:31:06;;;;;;;9.90;1.77;;;6.70;98.90;;;;;;5093063;28;20339;-76
2022/01/05 12:33:49;;;;;;;13.18;1.75;;;6.70;98.80;;;;;;5099014;28;20016;-76
2022/01/05 12:36:36;;;;;;;9.05;1.40;;;6.70;98.70;;;;;;5082650;28;20033;-75
2022/01/05 12:39:10;;;;;;;14.52;1.50;;;6.70;98.60;;;;;;5075696;28;20056;-75
2022/01/05 12:41:39;;;;;;;8.15;1.75;;;6.80;97.90;;;;;;5107815;28;20031;-75
2022/01/05 12:44:32;;;;;;;7.03;1.95;;;6.80;98.30;;;;;;5107377;28;20290;-75
2022/01/05 12:46:57;;;;;;;10.02;1.60;;;6.90;98.10;;;;;;5103697;28;20337;-75
2022/01/05 12:49:27;;;;;;;12.07;1.77;;;6.90;97.60;;;;;;5098918;28;20024;-75
2022/01/05 12:52:06;;;;;;;19.77;2.75;;;6.90;97.50;;;;;;5087338;28;20020;-77
2022/01/05 12:54:42;;;;;;;11.52;1.67;;;7.00;97.40;;;;;;5092807;28;20051;-75